Time;durP1;ratioP1;P1;durP2;ratioP2;P2;SDS_P1;SDS_P2;PMS_P1;PMS_P2;Temp;Humidity;BMP_temperature;BMP_pressure;BME280_temperature;BME280_humidity;BME280_pressure;Samples;Min_cycle;Max_cycle;Signal;HPM_P1;HPM_P2
2022/03/22 00:00:37;;;;;;;;;;;5.70;99.90;;;;;;5030083;28;19969;-75
2022/03/22 00:03:05;;;;;;;;;;;5.70;99.90;;;;;;5024107;28;20020;-75
2022/03/22 00:05:32;;;;;;;;;;;5.70;99.90;;;;;;5031833;28;19965;-75
2022/03/22 00:08:00;;;;;;;;;;;5.70;99.90;;;;;;5018405;28;20013;-74
2022/03/22 00:10:27;;;;;;;;;;;5.70;99.90;;;;;;5023578;28;19925;-74
2022/03/22 00:12:53;;;;;;;;;;;5.70;99.90;;;;;;5023050;28;19930;-75
2022/03/22 00:15:20;;;;;;;;;;;5.60;99.90;;;;;;5030115;28;19979;-74
2022/03/22 00:17:47;;;;;;;;;;;5.60;99.90;;;;;;5007295;28;19929;-74
2022/03/22 00:20:15;;;;;;;;;;;5.60;99.90;;;;;;5013139;28;20292;-75
2022/03/22 00:22:42;;;;;;;;;;;5.50;99.90;;;;;;5002450;28;20105;-74
2022/03/22 00:25:08;;;;;;;;;;;5.50;99.90;;;;;;5021710;28;19929;-74
2022/03/22 00:30:15;;;;;;;;;;;5.40;99.90;;;;;;5025494;28;19933;-73
2022/03/22 00:32:42;;;;;;;;;;;5.50;99.90;;;;;;5013725;28;20427;-74
2022/03/22 00:35:09;;;;;;;;;;;5.40;99.90;;;;;;5020173;28;19932;-75
2022/03/22 00:37:37;;;;;;;;;;;5.40;99.90;;;;;;5019603;28;20000;-74
2022/03/22 00:40:06;;;;;;;;;;;5.40;99.90;;;;;;5029382;28;20419;-74
2022/03/22 00:42:33;;;;;;;;;;;5.40;99.90;;;;;;5016027;28;19926;-74
2022/03/22 00:44:59;;;;;;;;;;;5.50;99.90;;;;;;5023663;28;20016;-75
2022/03/22 00:47:26;;;;;;;;;;;5.40;99.90;;;;;;5015681;28;19975;-75
2022/03/22 00:49:53;;;;;;;;;;;5.40;99.90;;;;;;5024018;28;19991;-75
2022/03/22 00:52:19;;;;;;;;;;;5.40;99.90;;;;;;5025302;28;20411;-74
2022/03/22 00:54:46;;;;;;;;;;;5.40;99.90;;;;;;5025781;28;19929;-75
2022/03/22 00:57:12;;;;;;;;;;;5.30;99.90;;;;;;5024006;28;20054;-74
2022/03/22 01:02:23;;;;;;;;;;;5.20;99.90;;;;;;5028343;28;19975;-75
2022/03/22 01:04:50;;;;;;;;;;;5.30;99.90;;;;;;5021400;28;19936;-73
2022/03/22 01:07:17;;;;;;;;;;;5.30;99.90;;;;;;5028297;28;19929;-76
2022/03/22 01:09:43;;;;;;;;;;;5.20;99.90;;;;;;5008466;28;20012;-74
2022/03/22 01:12:10;;;;;;;;;;;5.20;99.90;;;;;;5010656;28;20015;-74
2022/03/22 01:14:37;;;;;;;;;;;5.20;99.90;;;;;;5026812;28;20039;-75
2022/03/22 01:17:06;;;;;;;;;;;5.20;99.90;;;;;;5029895;28;19936;-75
2022/03/22 01:19:33;;;;;;;;;;;5.20;99.90;;;;;;5015643;28;19925;-74
2022/03/22 01:21:59;;;;;;;;;;;5.20;99.90;;;;;;5018706;28;20351;-75
2022/03/22 01:24:26;;;;;;;;;;;5.20;99.90;;;;;;5031971;28;19929;-77
2022/03/22 01:26:53;;;;;;;;;;;5.20;99.90;;;;;;5026658;28;19926;-75
2022/03/22 01:29:19;;;;;;;;;;;5.30;99.90;;;;;;5028165;28;20022;-74
2022/03/22 01:31:46;;;;;;;;;;;5.30;99.90;;;;;;5009453;28;20039;-75
2022/03/22 01:34:13;;;;;;;;;;;5.20;99.90;;;;;;5024991;28;20020;-74
2022/03/22 01:36:39;;;;;;;;;;;5.20;99.90;;;;;;5013169;28;20016;-75
2022/03/22 01:39:06;;;;;;;;;;;5.30;99.90;;;;;;5015465;28;19931;-74
2022/03/22 01:41:32;;;;;;;;;;;5.30;99.90;;;;;;5018777;28;19975;-75
2022/03/22 01:43:59;;;;;;;;;;;5.30;99.90;;;;;;5031131;28;19972;-74
2022/03/22 01:46:27;;;;;;;;;;;5.20;99.90;;;;;;5023001;28;19980;-75
2022/03/22 01:48:53;;;;;;;;;;;5.30;99.90;;;;;;5024403;28;20642;-75
2022/03/22 01:51:21;;;;;;;;;;;5.20;99.90;;;;;;5022276;28;19976;-74
2022/03/22 01:53:47;;;;;;;;;;;5.20;99.90;;;;;;5007863;28;20004;-74
2022/03/22 01:56:14;;;;;;;;;;;5.20;99.90;;;;;;5008964;28;20016;-74
2022/03/22 01:58:41;;;;;;;;;;;5.20;99.90;;;;;;5016556;28;19932;-74
2022/03/22 02:06:36;;;;;;;;;;;5.10;99.90;;;;;;5020652;28;19932;-74
2022/03/22 02:09:02;;;;;;;;;;;5.10;99.90;;;;;;5005728;28;20400;-74
2022/03/22 02:11:29;;;;;;;;;;;5.10;99.90;;;;;;5014949;28;19925;-77
2022/03/22 02:13:56;;;;;;;;;;;5.10;99.90;;;;;;5017235;28;20041;-74
2022/03/22 02:16:22;;;;;;;;;;;5.10;99.90;;;;;;5021078;28;20399;-76
2022/03/22 02:18:49;;;;;;;;;;;5.10;99.90;;;;;;5017312;28;20024;-75
2022/03/22 02:21:15;;;;;;;;;;;5.10;99.90;;;;;;5016567;28;20304;-74
2022/03/22 02:23:42;;;;;;;;;;;5.10;99.90;;;;;;5018366;28;19932;-74
2022/03/22 02:26:09;;;;;;;;;;;5.10;99.90;;;;;;5027784;28;20020;-75
2022/03/22 02:28:35;;;;;;;;;;;5.00;99.90;;;;;;5020616;28;19928;-78
2022/03/22 02:31:02;;;;;;;;;;;5.00;99.90;;;;;;5013024;28;20011;-75
2022/03/22 02:33:29;;;;;;;;;;;5.00;99.90;;;;;;5013693;28;19925;-74
2022/03/22 02:35:55;;;;;;;;;;;5.00;99.90;;;;;;5021792;28;20016;-75
2022/03/22 02:38:22;;;;;;;;;;;5.00;99.90;;;;;;5013067;28;20031;-75
2022/03/22 02:40:48;;;;;;;;;;;5.00;99.90;;;;;;5018931;28;19932;-75
2022/03/22 02:43:15;;;;;;;;;;;4.90;99.90;;;;;;5015121;28;20387;-74
2022/03/22 02:45:41;;;;;;;;;;;4.80;99.90;;;;;;5029251;28;19932;-75
2022/03/22 02:48:09;;;;;;;;;;;4.80;99.90;;;;;;5030394;28;20407;-75
2022/03/22 02:50:35;;;;;;;;;;;4.80;99.90;;;;;;5016163;28;19983;-75
2022/03/22 02:53:02;;;;;;;;;;;4.80;99.90;;;;;;5025803;28;19929;-74
2022/03/22 02:55:28;;;;;;;;;;;4.80;99.90;;;;;;5015597;28;20008;-74
2022/03/22 02:57:55;;;;;;;;;;;4.80;99.90;;;;;;5020732;28;19929;-74
2022/03/22 03:00:23;;;;;;;;;;;4.80;99.90;;;;;;5023779;28;19925;-74
2022/03/22 03:02:50;;;;;;;;;;;4.80;99.90;;;;;;5012279;28;19925;-74
2022/03/22 03:05:17;;;;;;;;;;;4.80;99.90;;;;;;5007270;28;19972;-75
2022/03/22 03:07:43;;;;;;;;;;;4.80;99.90;;;;;;5002650;28;19980;-75
2022/03/22 03:10:10;;;;;;;;;;;4.80;99.90;;;;;;5023244;28;19925;-74
2022/03/22 03:12:36;;;;;;;;;;;4.80;99.90;;;;;;5029945;28;19929;-76
2022/03/22 03:15:03;;;;;;;;;;;4.90;99.90;;;;;;5019556;28;19925;-72
2022/03/22 03:17:30;;;;;;;;;;;4.90;99.90;;;;;;5026020;28;19936;-75
2022/03/22 03:19:57;;;;;;;;;;;4.90;99.90;;;;;;5025732;28;19925;-74
2022/03/22 03:22:23;;;;;;;;;;;4.90;99.90;;;;;;5027510;28;20389;-74
2022/03/22 03:24:50;;;;;;;;;;;4.80;99.90;;;;;;5020982;28;19926;-75
2022/03/22 03:27:16;;;;;;;;;;;4.70;99.90;;;;;;5034253;28;19925;-76
2022/03/22 03:29:43;;;;;;;;;;;4.70;99.90;;;;;;5016454;28;19926;-75
2022/03/22 03:32:09;;;;;;;;;;;4.60;99.90;;;;;;5023112;28;19976;-74
2022/03/22 03:34:36;;;;;;;;;;;4.60;99.90;;;;;;5016150;28;19925;-77
2022/03/22 03:37:03;;;;;;;;;;;4.50;99.90;;;;;;5031893;28;19925;-75
2022/03/22 03:39:29;;;;;;;;;;;4.50;99.90;;;;;;5027873;28;19925;-75
2022/03/22 03:41:56;;;;;;;;;;;4.50;99.90;;;;;;5031559;28;19987;-74
2022/03/22 03:47:11;;;;;;;;;;;4.60;99.90;;;;;;5018367;28;19935;-74
2022/03/22 03:49:38;;;;;;;;;;;4.60;99.90;;;;;;5026200;28;19926;-78
2022/03/22 03:52:05;;;;;;;;;;;4.60;99.90;;;;;;5028619;28;19971;-73
2022/03/22 03:54:32;;;;;;;;;;;4.60;99.90;;;;;;5030545;28;19979;-75
2022/03/22 03:56:58;;;;;;;;;;;4.60;99.90;;;;;;5022576;28;19983;-75
2022/03/22 03:59:25;;;;;;;;;;;4.60;99.90;;;;;;5028391;28;19933;-75
2022/03/22 04:01:51;;;;;;;;;;;4.70;99.90;;;;;;5021074;28;19979;-76
2022/03/22 04:04:18;;;;;;;;;;;4.70;99.90;;;;;;5018001;28;19926;-74
2022/03/22 04:06:45;;;;;;;;;;;4.60;99.90;;;;;;5030242;28;19987;-74
2022/03/22 04:09:11;;;;;;;;;;;4.60;99.90;;;;;;5017348;28;19975;-75
2022/03/22 04:11:39;;;;;;;;;;;4.60;99.90;;;;;;5030316;28;19925;-75
2022/03/22 04:14:06;;;;;;;;;;;4.60;99.90;;;;;;5013515;28;19936;-75
2022/03/22 04:16:32;;;;;;;;;;;4.60;99.90;;;;;;5031742;28;20288;-75
2022/03/22 04:18:59;;;;;;;;;;;4.60;99.90;;;;;;5020839;28;19925;-75
2022/03/22 04:21:25;;;;;;;;;;;4.50;99.90;;;;;;5026338;28;19975;-75
2022/03/22 04:23:52;;;;;;;;;;;4.50;99.90;;;;;;5023903;28;19973;-75
2022/03/22 04:26:19;;;;;;;;;;;4.50;99.90;;;;;;5024487;28;19926;-77
2022/03/22 04:34:13;;;;;;;;;;;4.40;99.90;;;;;;5020430;28;20365;-74
2022/03/22 04:36:40;;;;;;;;;;;4.40;99.90;;;;;;5028083;28;20008;-76
2022/03/22 04:39:07;;;;;;;;;;;4.40;99.90;;;;;;5020010;28;20369;-75
2022/03/22 04:41:33;;;;;;;;;;;4.50;99.90;;;;;;5024383;28;19933;-75
2022/03/22 04:44:01;;;;;;;;;;;4.40;99.90;;;;;;5026617;28;20004;-75
2022/03/22 04:46:27;;;;;;;;;;;4.40;99.90;;;;;;5021596;28;19964;-75
2022/03/22 04:48:54;;;;;;;;;;;4.40;99.90;;;;;;5011846;28;20007;-75
2022/03/22 04:56:49;;;;;;;;;;;4.40;99.90;;;;;;5019825;28;19929;-75
2022/03/22 04:59:15;;;;;;;;;;;4.30;99.90;;;;;;5027574;28;19960;-75
2022/03/22 05:01:42;;;;;;;;;;;4.40;99.90;;;;;;5025148;28;19999;-75
2022/03/22 05:04:09;;;;;;;;;;;4.40;99.90;;;;;;5016982;28;20004;-75
2022/03/22 05:06:37;;;;;;;;;;;4.40;99.90;;;;;;5028154;28;20001;-75
2022/03/22 05:09:03;;;;;;;;;;;4.40;99.90;;;;;;5021121;28;19925;-75
2022/03/22 05:11:30;;;;;;;;;;;4.30;99.90;;;;;;5028707;28;20008;-75
2022/03/22 05:13:57;;;;;;;;;;;4.30;99.90;;;;;;5020331;28;19930;-75
2022/03/22 05:16:24;;;;;;;;;;;4.40;99.90;;;;;;5021253;28;20009;-75
2022/03/22 05:18:50;;;;;;;;;;;4.40;99.90;;;;;;5027611;28;20385;-75
2022/03/22 05:21:17;;;;;;;;;;;4.30;99.90;;;;;;5014436;28;20023;-75
2022/03/22 05:23:45;;;;;;;;;;;4.30;99.90;;;;;;5029251;28;20451;-78
2022/03/22 05:26:12;;;;;;;;;;;4.30;99.90;;;;;;5009482;28;20381;-75
2022/03/22 05:28:38;;;;;;;;;;;4.30;99.90;;;;;;5018528;28;20300;-75
2022/03/22 05:31:05;;;;;;;;;;;4.30;99.90;;;;;;5013672;28;19972;-75
2022/03/22 05:33:32;;;;;;;;;;;4.30;99.90;;;;;;5025874;28;20012;-75
2022/03/22 05:35:59;;;;;;;;;;;4.30;99.90;;;;;;5021081;28;20448;-74
2022/03/22 05:38:25;;;;;;;;;;;4.30;99.90;;;;;;5012293;28;19925;-73
2022/03/22 05:40:52;;;;;;;;;;;4.30;99.90;;;;;;5023403;28;20016;-75
2022/03/22 05:43:19;;;;;;;;;;;4.30;99.90;;;;;;5024908;28;20004;-74
2022/03/22 05:45:46;;;;;;;;;;;4.30;99.90;;;;;;4996305;28;19973;-77
2022/03/22 05:48:13;;;;;;;;;;;4.30;99.90;;;;;;5021400;28;19932;-76
2022/03/22 05:50:39;;;;;;;;;;;4.30;99.90;;;;;;5014901;28;20447;-75
2022/03/22 05:53:06;;;;;;;;;;;4.30;99.90;;;;;;5016888;28;19925;-75
2022/03/22 05:55:32;;;;;;;;;;;4.30;99.90;;;;;;5013144;28;19925;-74
2022/03/22 05:57:59;;;;;;;;;;;4.30;99.90;;;;;;5023025;28;20012;-75
2022/03/22 06:00:27;;;;;;;;;;;4.30;99.90;;;;;;5010638;28;19925;-74
2022/03/22 06:02:53;;;;;;;;;;;4.30;99.90;;;;;;5025866;28;19926;-75
2022/03/22 06:05:20;;;;;;;;;;;4.30;99.90;;;;;;5023988;28;20013;-74
2022/03/22 06:07:46;;;;;;;;;;;4.40;99.90;;;;;;5031802;28;20458;-75
2022/03/22 06:10:13;;;;;;;;;;;4.40;99.90;;;;;;5018767;28;20038;-74
2022/03/22 06:12:40;;;;;;;;;;;4.40;99.90;;;;;;5019933;28;20008;-77
2022/03/22 06:15:15;;;;;;;;;;;4.40;99.90;;;;;;5026276;28;19926;-75
2022/03/22 06:17:42;;;;;;;;;;;4.40;99.90;;;;;;5016941;28;20037;-75
2022/03/22 06:20:08;;;;;;;;;;;4.50;99.90;;;;;;5014570;28;19972;-75
2022/03/22 06:22:35;;;;;;;;;;;4.50;99.90;;;;;;5013331;28;19976;-76
2022/03/22 06:25:01;;;;;;;;;;;4.60;99.90;;;;;;5012334;28;19932;-75
2022/03/22 06:27:28;;;;;;;;;;;4.60;99.90;;;;;;5014112;28;19933;-75
2022/03/22 06:29:55;;;;;;;;;;;4.60;99.90;;;;;;5018884;28;19926;-76
2022/03/22 06:32:22;;;;;;;;;;;4.70;99.90;;;;;;5016503;28;20008;-75
2022/03/22 06:34:49;;;;;;;;;;;4.70;99.90;;;;;;5019515;28;20063;-75
2022/03/22 06:37:16;;;;;;;;;;;4.70;99.90;;;;;;5018820;28;20399;-75
2022/03/22 06:39:42;;;;;;;;;;;4.80;99.90;;;;;;5021288;28;19972;-75
2022/03/22 06:42:09;;;;;;;;;;;4.80;99.90;;;;;;4998089;28;19972;-75
2022/03/22 06:44:37;;;;;;;;;;;4.90;99.90;;;;;;5019459;28;19968;-75
2022/03/22 06:47:04;;;;;;;;;;;5.00;99.90;;;;;;5017442;28;20012;-75
2022/03/22 06:49:30;;;;;;;;;;;5.10;99.90;;;;;;5026317;28;20046;-75
2022/03/22 06:51:57;;;;;;;;;;;5.20;99.90;;;;;;5022466;28;19931;-75
2022/03/22 06:54:24;;;;;;;;;;;5.30;99.90;;;;;;5019421;28;19926;-74
2022/03/22 06:56:50;;;;;;;;;;;5.50;99.90;;;;;;5030935;28;20019;-74
2022/03/22 06:59:17;;;;;;;;;;;5.50;99.90;;;;;;5032417;28;20008;-74
2022/03/22 07:01:44;;;;;;;;;;;5.70;99.90;;;;;;5024776;28;20024;-75
2022/03/22 07:04:10;;;;;;;;;;;5.80;99.90;;;;;;5001451;28;20020;-75
2022/03/22 07:06:37;;;;;;;;;;;5.90;99.90;;;;;;5028704;28;19956;-74
2022/03/22 07:09:03;;;;;;;;;;;6.00;99.90;;;;;;5033859;28;19979;-77
2022/03/22 07:11:49;;;;;;;;;;;6.20;99.90;;;;;;5016458;28;19925;-73
2022/03/22 07:14:16;;;;;;;;;;;6.30;99.90;;;;;;5004743;28;19936;-75
2022/03/22 07:16:42;;;;;;;;;;;6.50;99.90;;;;;;5006045;28;20015;-74
2022/03/22 07:19:09;;;;;;;;;;;6.60;99.90;;;;;;5005900;28;19935;-75
2022/03/22 07:21:36;;;;;;;;;;;6.70;99.90;;;;;;5015539;28;20044;-74
2022/03/22 07:24:03;;;;;;;;;;;6.90;99.90;;;;;;5025938;28;19925;-75
2022/03/22 07:26:30;;;;;;;;;;;7.10;99.90;;;;;;5026088;28;19933;-75
2022/03/22 07:28:56;;;;;;;;;;;7.10;99.90;;;;;;5027274;28;19979;-76
2022/03/22 07:31:23;;;;;;;;;;;7.20;99.90;;;;;;5029889;28;19930;-75
2022/03/22 07:33:49;;;;;;;;;;;7.40;99.90;;;;;;5009557;28;20345;-75
2022/03/22 07:36:16;;;;;;;;;;;7.50;99.90;;;;;;5026842;28;19925;-77
2022/03/22 07:38:43;;;;;;;;;;;7.50;99.90;;;;;;5017229;28;19925;-74
2022/03/22 07:41:10;;;;;;;;;;;7.60;99.90;;;;;;5015687;28;20012;-75
2022/03/22 07:43:37;;;;;;;;;;;7.80;99.90;;;;;;5010173;28;19948;-74
2022/03/22 07:46:04;;;;;;;;;;;7.90;99.90;;;;;;5030115;28;20017;-75
2022/03/22 07:48:30;;;;;;;;;;;7.90;99.90;;;;;;5033607;28;20295;-74
2022/03/22 07:53:41;;;;;;;;;;;8.20;99.90;;;;;;5031035;28;19925;-74
2022/03/22 07:56:08;;;;;;;;;;;8.30;99.90;;;;;;5007169;28;20019;-75
2022/03/22 07:58:34;;;;;;;;;;;8.40;99.90;;;;;;5021835;28;19925;-75
2022/03/22 08:01:01;;;;;;;;;;;8.50;99.90;;;;;;5026916;28;20291;-74
2022/03/22 08:03:28;;;;;;;;;;;8.60;99.90;;;;;;5015892;28;19972;-75
2022/03/22 08:05:54;;;;;;;;;;;8.80;99.90;;;;;;5031745;28;20048;-75
2022/03/22 08:08:21;;;;;;;;;;;8.90;99.90;;;;;;5025105;28;20018;-75
2022/03/22 08:10:48;;;;;;;;;;;9.10;99.90;;;;;;5024442;28;19932;-74
2022/03/22 08:13:14;;;;;;;;;;;9.30;99.90;;;;;;5026448;28;19968;-75
2022/03/22 08:15:41;;;;;;;;;;;9.50;99.90;;;;;;5011361;28;19931;-75
2022/03/22 08:18:10;;;;;;;;;;;9.60;99.90;;;;;;5015422;28;19936;-75
2022/03/22 08:20:37;;;;;;;;;;;9.70;99.90;;;;;;5010975;28;19979;-72
2022/03/22 08:23:04;;;;;;;;;;;9.90;99.90;;;;;;5004319;28;20419;-75
2022/03/22 08:25:30;;;;;;;;;;;10.00;99.90;;;;;;5027583;28;19925;-74
2022/03/22 08:27:57;;;;;;;;;;;10.20;99.90;;;;;;5021561;28;19925;-74
2022/03/22 08:30:23;;;;;;;;;;;10.40;99.90;;;;;;5016818;28;19926;-74
2022/03/22 08:32:50;;;;;;;;;;;10.40;99.90;;;;;;5012278;28;19964;-75
2022/03/22 08:35:17;;;;;;;;;;;10.60;99.90;;;;;;5015456;28;19964;-76
2022/03/22 08:37:44;;;;;;;;;;;10.70;99.90;;;;;;5016630;28;20285;-74
2022/03/22 08:40:10;;;;;;;;;;;10.80;99.90;;;;;;5026090;28;19979;-74
2022/03/22 08:42:38;;;;;;;;;;;11.00;99.90;;;;;;5019287;28;19932;-74
2022/03/22 08:45:06;;;;;;;;;;;11.20;99.90;;;;;;5026906;28;20101;-75
2022/03/22 08:47:35;;;;;;;;;;;11.30;99.90;;;;;;5031741;28;19933;-74
2022/03/22 08:50:01;;;;;;;;;;;11.50;99.90;;;;;;5031762;28;19999;-78
2022/03/22 08:52:28;;;;;;;;;;;11.60;99.90;;;;;;5022380;28;19931;-76
2022/03/22 08:54:55;;;;;;;;;;;11.80;99.90;;;;;;5023446;28;19929;-75
2022/03/22 08:57:22;;;;;;;;;;;12.00;99.90;;;;;;5023057;28;20586;-75
2022/03/22 08:59:48;;;;;;;;;;;12.10;99.90;;;;;;5015840;28;19936;-75
2022/03/22 09:02:15;;;;;;;;;;;12.20;99.90;;;;;;5002357;28;20032;-75
2022/03/22 09:07:26;;;;;;;;;;;12.50;99.90;;;;;;5017278;28;19925;-75
2022/03/22 09:09:52;;;;;;;;;;;12.70;99.90;;;;;;5002023;28;20055;-75
2022/03/22 09:12:20;;;;;;;;;;;12.90;99.90;;;;;;5009236;28;19939;-74
2022/03/22 09:14:46;;;;;;;;;;;13.00;99.90;;;;;;5011392;28;20393;-75
2022/03/22 09:17:13;;;;;;;;;;;13.20;99.90;;;;;;5017465;28;19929;-75
2022/03/22 09:19:39;;;;;;;;;;;13.30;99.90;;;;;;5026887;28;19931;-75
2022/03/22 09:22:07;;;;;;;;;;;13.50;99.90;;;;;;5014548;28;19968;-75
2022/03/22 09:24:35;;;;;;;;;;;13.60;99.90;;;;;;5021394;28;20417;-74
2022/03/22 09:27:02;;;;;;;;;;;13.70;99.90;;;;;;5010577;28;20036;-75
2022/03/22 09:29:28;;;;;;;;;;;13.80;99.90;;;;;;5018422;28;19929;-75
2022/03/22 09:31:56;;;;;;;;;;;14.00;99.90;;;;;;5023822;28;19925;-75
2022/03/22 09:34:24;;;;;;;;;;;14.10;99.90;;;;;;5018344;28;20387;-75
2022/03/22 09:36:51;;;;;;;;;;;14.10;99.90;;;;;;5022535;28;19936;-75
2022/03/22 09:39:19;;;;;;;;;;;14.30;99.90;;;;;;5018800;28;19929;-74
2022/03/22 09:41:46;;;;;;;;;;;14.40;99.90;;;;;;5030015;28;19925;-75
2022/03/22 09:44:12;;;;;;;;;;;14.50;99.50;;;;;;5011728;28;19976;-75
2022/03/22 09:46:39;;;;;;;;;;;14.70;99.90;;;;;;5027593;28;19932;-75
2022/03/22 09:49:05;;;;;;;;;;;14.80;99.80;;;;;;5030137;28;20440;-78
2022/03/22 09:51:48;;;;;;;;;;;14.90;99.90;;;;;;5010591;28;19971;-74
2022/03/22 09:54:15;;;;;;;;;;;15.00;99.90;;;;;;5021565;28;19925;-75
2022/03/22 09:56:42;;;;;;;;;;;15.10;98.70;;;;;;5028115;28;20380;-75
2022/03/22 09:59:09;;;;;;;;;;;15.10;98.60;;;;;;5029352;28;19932;-75
2022/03/22 10:01:35;;;;;;;;;;;15.20;98.30;;;;;;5020558;28;19925;-75
2022/03/22 10:04:02;;;;;;;;;;;15.30;96.70;;;;;;5018387;28;19965;-75
2022/03/22 10:06:29;;;;;;;;;;;15.30;96.70;;;;;;5020615;28;20015;-76
2022/03/22 10:08:55;;;;;;;;;;;15.50;97.30;;;;;;5014689;28;19929;-75
2022/03/22 10:11:22;;;;;;;;;;;15.50;96.20;;;;;;4996914;28;19976;-75
2022/03/22 10:13:48;;;;;;;;;;;15.40;95.80;;;;;;4997888;28;19925;-75
2022/03/22 10:16:15;;;;;;;;;;;15.50;96.50;;;;;;5019482;28;19968;-75
2022/03/22 10:18:42;;;;;;;;;;;15.60;96.80;;;;;;5022036;28;20391;-75
2022/03/22 10:21:08;;;;;;;;;;;15.80;96.60;;;;;;5030989;28;20012;-78
2022/03/22 10:23:36;;;;;;;;;;;16.00;96.90;;;;;;5022460;28;20006;-75
2022/03/22 10:26:02;;;;;;;;;;;16.00;96.70;;;;;;5017756;28;19925;-75
2022/03/22 10:28:29;;;;;;;;;;;16.10;96.10;;;;;;5013009;28;19964;-74
2022/03/22 10:30:56;;;;;;;;;;;16.20;95.80;;;;;;5015774;28;19972;-76
2022/03/22 10:33:22;;;;;;;;;;;16.20;95.10;;;;;;5020013;28;20435;-75
2022/03/22 10:35:49;;;;;;;;;;;16.40;96.30;;;;;;5021221;28;19925;-76
2022/03/22 10:38:18;;;;;;;;;;;16.50;95.20;;;;;;5021617;28;20289;-75
2022/03/22 10:40:44;;;;;;;;;;;16.50;94.00;;;;;;5015286;28;20331;-75
2022/03/22 10:43:11;;;;;;;;;;;16.50;95.00;;;;;;5025018;28;20024;-78
2022/03/22 10:45:38;;;;;;;;;;;16.60;95.50;;;;;;5027673;28;19932;-76
2022/03/22 10:48:04;;;;;;;;;;;16.70;95.00;;;;;;5008463;28;20361;-74
2022/03/22 10:50:31;;;;;;;;;;;16.90;95.30;;;;;;5015417;28;20410;-76
2022/03/22 10:52:57;;;;;;;;;;;16.90;93.40;;;;;;5016765;28;19984;-76
2022/03/22 10:55:24;;;;;;;;;;;17.00;93.50;;;;;;5016929;28;19960;-75
2022/03/22 10:57:50;;;;;;;;;;;17.10;94.90;;;;;;5014100;28;19944;-77
2022/03/22 11:00:17;;;;;;;;;;;17.20;92.20;;;;;;4998812;28;19926;-76
2022/03/22 11:02:43;;;;;;;;;;;17.10;93.10;;;;;;5012682;28;19925;-76
2022/03/22 11:05:10;;;;;;;;;;;17.30;92.90;;;;;;5013865;28;19932;-79
2022/03/22 11:07:37;;;;;;;;;;;17.30;91.90;;;;;;5016360;28;19972;-77
2022/03/22 11:10:04;;;;;;;;;;;17.30;92.40;;;;;;4999085;28;19925;-76
2022/03/22 11:12:32;;;;;;;;;;;17.40;92.70;;;;;;5014153;28;19935;-78
2022/03/22 11:14:59;;;;;;;;;;;17.40;91.50;;;;;;4998546;28;19961;-76
2022/03/22 11:17:25;;;;;;;;;;;17.50;92.50;;;;;;4997862;28;19948;-76
2022/03/22 11:19:52;;;;;;;;;;;17.50;93.10;;;;;;5014108;28;19930;-76
2022/03/22 11:22:18;;;;;;;;;;;17.60;92.50;;;;;;5001708;28;19932;-76
2022/03/22 11:24:45;;;;;;;;;;;17.70;91.40;;;;;;5017015;28;19925;-76
2022/03/22 11:27:12;;;;;;;;;;;17.70;90.70;;;;;;5002419;28;19929;-79
2022/03/22 11:29:38;;;;;;;;;;;17.70;90.80;;;;;;5016549;28;19932;-76
2022/03/22 11:34:49;;;;;;;;;;;17.80;91.20;;;;;;5015444;28;19980;-76
2022/03/22 11:37:16;;;;;;;;;;;17.80;90.00;;;;;;5014724;28;19932;-76
2022/03/22 11:42:27;;;;;;;;;;;17.90;90.50;;;;;;5017586;28;19925;-76
2022/03/22 11:44:53;;;;;;;;;;;18.00;89.10;;;;;;5021361;28;19972;-76
2022/03/22 11:47:20;;;;;;;;;;;18.10;89.10;;;;;;5003286;28;19926;-76
2022/03/22 11:49:46;;;;;;;;;;;18.10;87.10;;;;;;5000207;28;19925;-76
2022/03/22 11:52:13;;;;;;;;;;;18.10;87.20;;;;;;5019659;28;20442;-80
2022/03/22 11:54:40;;;;;;;;;;;18.20;84.40;;;;;;5005971;28;19925;-76
2022/03/22 11:57:06;;;;;;;;;;;18.30;81.20;;;;;;5018416;28;19933;-76
2022/03/22 11:59:33;;;;;;;;;;;18.30;84.00;;;;;;5009226;28;19925;-76
2022/03/22 12:01:59;;;;;;;;;;;18.40;83.30;;;;;;5000229;28;19932;-76
2022/03/22 12:04:26;;;;;;;;;;;18.40;86.50;;;;;;5019144;28;19948;-76
2022/03/22 12:06:52;;;;;;;;;;;18.50;80.90;;;;;;5015312;28;20288;-76
2022/03/22 12:09:19;;;;;;;;;;;18.50;83.20;;;;;;5019355;28;19949;-76
2022/03/22 12:11:45;;;;;;;;;;;18.40;79.00;;;;;;5000986;28;19926;-75
2022/03/22 12:14:12;;;;;;;;;;;18.50;80.80;;;;;;5005281;28;19932;-76
2022/03/22 12:16:39;;;;;;;;;;;18.40;79.70;;;;;;5020951;28;20008;-76
2022/03/22 12:19:05;;;;;;;;;;;18.50;77.80;;;;;;5021388;28;20399;-75
2022/03/22 12:21:32;;;;;;;;;;;18.50;78.30;;;;;;5018085;28;20377;-76
2022/03/22 12:23:59;;;;;;;;;;;18.50;79.50;;;;;;5003327;28;19925;-78
2022/03/22 12:26:25;;;;;;;;;;;18.70;79.50;;;;;;4998678;28;20358;-77
2022/03/22 12:28:54;;;;;;;;;;;18.70;79.80;;;;;;5012678;28;20285;-75
2022/03/22 12:31:21;;;;;;;;;;;18.80;77.80;;;;;;5031951;28;19929;-77
2022/03/22 12:33:47;;;;;;;;;;;18.80;77.40;;;;;;5017275;28;19933;-77
2022/03/22 12:36:14;;;;;;;;;;;18.80;78.90;;;;;;5021763;28;20107;-77
2022/03/22 12:38:41;;;;;;;;;;;18.90;77.40;;;;;;5007094;28;20419;-76
2022/03/22 12:41:07;;;;;;;;;;;18.80;76.50;;;;;;5028730;28;19972;-77
2022/03/22 12:43:34;;;;;;;;;;;18.90;74.70;;;;;;5006849;28;19925;-76
2022/03/22 12:46:00;;;;;;;;;;;18.90;74.70;;;;;;5026889;28;19932;-76
2022/03/22 12:48:27;;;;;;;;;;;19.00;75.50;;;;;;5026295;28;19949;-77
2022/03/22 12:50:54;;;;;;;;;;;19.00;73.40;;;;;;5027300;28;20300;-77
2022/03/22 12:53:22;;;;;;;;;;;19.00;75.90;;;;;;5028371;28;19965;-78
2022/03/22 12:55:48;;;;;;;;;;;19.00;75.50;;;;;;5011299;28;19925;-77
2022/03/22 12:58:15;;;;;;;;;;;19.00;74.90;;;;;;5030738;28;19925;-77
2022/03/22 13:00:41;;;;;;;;;;;19.10;76.80;;;;;;5021156;28;19929;-77
2022/03/22 13:03:08;;;;;;;;;;;19.10;75.10;;;;;;5019923;28;19925;-76
2022/03/22 13:05:37;;;;;;;;;;;19.10;72.00;;;;;;5027977;28;19979;-79
2022/03/22 13:08:06;;;;;;;;;;;19.10;74.00;;;;;;5019323;28;20024;-76
2022/03/22 13:13:16;;;;;;;;;;;19.20;72.60;;;;;;5010262;28;20003;-77
2022/03/22 13:15:42;;;;;;;;;;;19.20;72.00;;;;;;5020644;28;20407;-77
2022/03/22 13:18:08;;;;;;;;;;;19.20;73.00;;;;;;5014886;28;19932;-77
2022/03/22 13:20:35;;;;;;;;;;;19.20;73.40;;;;;;5028117;28;19941;-80
2022/03/22 13:23:04;;;;;;;;;;;19.20;72.70;;;;;;5027943;28;19929;-79
2022/03/22 13:25:30;;;;;;;;;;;19.20;71.80;;;;;;5014013;28;19926;-78
2022/03/22 13:27:57;;;;;;;;;;;19.20;71.20;;;;;;5022632;28;19988;-77
2022/03/22 13:30:23;;;;;;;;;;;19.20;70.60;;;;;;5016113;28;19968;-78
2022/03/22 13:32:50;;;;;;;;;;;19.30;72.80;;;;;;5015848;28;19933;-78
2022/03/22 13:35:17;;;;;;;;;;;19.30;72.00;;;;;;5020415;28;19925;-78
2022/03/22 13:37:43;;;;;;;;;;;19.30;69.20;;;;;;5032035;28;19937;-78
2022/03/22 13:40:10;;;;;;;;;;;19.30;72.80;;;;;;5028927;28;19925;-79
2022/03/22 13:42:36;;;;;;;;;;;19.30;70.90;;;;;;5006643;28;19932;-76
2022/03/22 13:45:03;;;;;;;;;;;19.40;72.10;;;;;;5026703;28;19933;-77
2022/03/22 13:47:30;;;;;;;;;;;19.40;70.20;;;;;;5029107;28;19939;-77
2022/03/22 13:49:57;;;;;;;;;;;19.40;72.30;;;;;;5027204;28;19933;-78
2022/03/22 13:52:23;;;;;;;;;;;19.50;73.30;;;;;;5002472;28;19931;-80
2022/03/22 13:54:50;;;;;;;;;;;19.60;71.20;;;;;;5029156;28;19995;-78
2022/03/22 13:57:17;;;;;;;;;;;19.50;71.10;;;;;;5019850;28;19932;-78
2022/03/22 13:59:43;;;;;;;;;;;19.50;71.00;;;;;;5013895;28;19980;-76
2022/03/22 14:02:10;;;;;;;;;;;19.60;71.80;;;;;;5028237;28;19936;-75
2022/03/22 14:04:37;;;;;;;;;;;19.70;73.70;;;;;;5026462;28;19972;-76
2022/03/22 14:07:03;;;;;;;;;;;19.60;69.90;;;;;;5027537;28;19925;-78
2022/03/22 14:09:31;;;;;;;;;;;19.70;70.00;;;;;;5017183;28;19925;-78
2022/03/22 14:11:57;;;;;;;;;;;19.60;66.80;;;;;;5024396;28;20004;-76
2022/03/22 14:14:24;;;;;;;;;;;19.60;65.60;;;;;;5014299;28;19925;-80
2022/03/22 14:16:51;;;;;;;;;;;19.60;67.80;;;;;;5029606;28;19925;-76
2022/03/22 14:19:18;;;;;;;;;;;19.60;68.30;;;;;;5025754;28;19945;-77
2022/03/22 14:21:45;;;;;;;;;;;19.60;67.30;;;;;;5012056;28;19936;-77
2022/03/22 14:24:11;;;;;;;;;;;19.50;66.00;;;;;;5026625;28;19926;-77
2022/03/22 14:26:38;;;;;;;;;;;19.50;66.10;;;;;;5030181;28;19940;-77
2022/03/22 14:29:04;;;;;;;;;;;19.50;66.10;;;;;;5027655;28;19925;-80
2022/03/22 14:31:31;;;;;;;;;;;19.50;69.80;;;;;;5014964;28;19932;-77
2022/03/22 14:33:57;;;;;;;;;;;19.40;69.20;;;;;;4998345;28;19925;-76
2022/03/22 14:36:23;;;;;;;;;;;19.50;66.90;;;;;;5014092;28;19925;-79
2022/03/22 14:38:50;;;;;;;;;;;19.40;66.60;;;;;;5027920;28;20365;-77
2022/03/22 14:41:26;;;;;;;;;;;19.40;64.60;;;;;;5023524;28;20439;-77
2022/03/22 14:43:53;;;;;;;;;;;19.30;65.20;;;;;;5022326;28;19936;-76
2022/03/22 14:46:19;;;;;;;;;;;19.30;62.60;;;;;;5000540;28;19932;-78
2022/03/22 14:48:49;;;;;;;;;;;19.30;68.00;;;;;;5004000;28;19925;-77
2022/03/22 14:51:16;;;;;;;;;;;19.50;64.30;;;;;;5017158;28;19925;-76
2022/03/22 14:59:10;;;;;;;;;;;19.30;64.80;;;;;;5027578;28;19925;-78
2022/03/22 15:01:37;;;;;;;;;;;19.20;65.80;;;;;;5026497;28;19933;-78
2022/03/22 15:04:03;;;;;;;;;;;19.20;65.20;;;;;;5032038;28;19963;-77